createdAt,value
2018-10-03T00:04:29.945Z,0.88
2018-10-03T00:10:24.907Z,0.82
2018-10-03T00:16:19.921Z,0.75
2018-10-03T00:22:14.912Z,1.06
2018-10-03T00:28:09.961Z,0.89
2018-10-03T00:34:04.912Z,0.76
2018-10-03T00:39:59.967Z,0.75
2018-10-03T00:45:54.914Z,0.97
2018-10-03T00:51:49.979Z,1.02
2018-10-03T00:57:44.971Z,0.75
2018-10-03T01:03:39.942Z,0.85
2018-10-03T01:09:34.971Z,0.91
2018-10-03T01:15:29.959Z,0.71
2018-10-03T01:21:24.952Z,0.85
2018-10-03T01:27:20.441Z,0.84
2018-10-03T01:33:14.984Z,0.97
2018-10-03T01:39:09.996Z,1
2018-10-03T01:45:04.995Z,0.85
2018-10-03T01:50:59.998Z,0.9
2018-10-03T01:56:55.037Z,1.05
2018-10-03T02:20:35.019Z,1.03
2018-10-03T02:20:35.201Z,1.3
2018-10-03T02:20:35.211Z,1.3
2018-10-03T02:20:35.235Z,1.3
2018-10-03T02:26:30.032Z,0.92
2018-10-03T02:32:25.019Z,0.92
2018-10-03T02:38:19.995Z,1.02
2018-10-03T02:44:14.975Z,1.01
2018-10-03T02:50:10.098Z,0.97
2018-10-03T02:56:04.982Z,0.95
2018-10-03T03:02:00.007Z,1.13
2018-10-03T03:07:55.011Z,0.82
2018-10-03T03:13:50.004Z,0.92
2018-10-03T03:19:44.989Z,0.76
2018-10-03T03:25:39.998Z,0.84
2018-10-03T03:31:34.979Z,1.1
2018-10-03T03:37:29.954Z,1.05
2018-10-03T03:43:24.977Z,0.89
2018-10-03T03:49:19.968Z,0.85
2018-10-03T03:55:15.004Z,0.89
2018-10-03T04:01:10.028Z,0.87
2018-10-03T04:07:04.999Z,1.24
2018-10-03T04:12:59.968Z,1.22
2018-10-03T04:18:55.010Z,1.14
2018-10-03T04:24:50.021Z,0.96
2018-10-03T04:30:44.967Z,0.98
2018-10-03T04:36:40.004Z,0.73
2018-10-03T04:42:35.003Z,1
2018-10-03T04:48:30.024Z,1
2018-10-03T04:54:24.979Z,0.94
2018-10-03T05:24:00.034Z,1.07
2018-10-03T05:24:00.196Z,1.36
2018-10-03T05:24:00.207Z,1.36
2018-10-03T05:24:00.242Z,1.36
2018-10-03T05:29:55.024Z,1
2018-10-03T05:35:50.068Z,1.6
2018-10-03T05:41:45.083Z,1.28
2018-10-03T05:47:40.036Z,1.24
2018-10-03T05:53:35.036Z,2.79
2018-10-03T05:59:30.039Z,2.35
2018-10-03T06:05:25.007Z,2.19
2018-10-03T06:11:20.039Z,2.29
2018-10-03T06:17:14.996Z,2.26
2018-10-03T06:23:10.008Z,2.24
2018-10-03T06:29:05.223Z,2.12
2018-10-03T06:35:00.049Z,2.95
2018-10-03T06:40:55.051Z,2.04
2018-10-03T06:46:50.031Z,2.25
2018-10-03T06:52:45.029Z,2.61
2018-10-03T06:58:40.032Z,2.77
2018-10-03T07:04:35.034Z,2.88
2018-10-03T07:10:30.114Z,1.98
2018-10-03T07:16:25.072Z,2.31
2018-10-03T07:22:20.060Z,1.97
2018-10-03T07:28:15.014Z,2.14
2018-10-03T07:34:10.039Z,2.45
2018-10-03T07:40:05.069Z,2
2018-10-03T07:46:00.082Z,1.9
2018-10-03T07:51:55.046Z,2.45
2018-10-03T07:57:50.031Z,1.43
2018-10-03T08:21:30.037Z,2.11
2018-10-03T08:21:30.144Z,1.61
2018-10-03T08:21:30.156Z,1.71
2018-10-03T08:21:30.188Z,1.71
2018-10-03T08:27:25.052Z,1.83
2018-10-03T08:33:20.187Z,1.8
2018-10-03T08:39:15.091Z,1.62
2018-10-03T08:45:10.051Z,1.36
2018-10-03T08:51:05.072Z,1.64
2018-10-03T08:57:00.112Z,1.87
2018-10-03T09:02:55.075Z,1.17
2018-10-03T09:08:50.056Z,1.02
2018-10-03T09:14:45.091Z,1.61
2018-10-03T09:20:40.159Z,1.31
2018-10-03T09:26:35.103Z,1.13
2018-10-03T09:32:30.070Z,1.38
2018-10-03T09:38:25.111Z,1.2
2018-10-03T09:44:20.175Z,1.18
2018-10-03T09:50:15.072Z,1.54
2018-10-03T09:56:10.110Z,1.28
2018-10-03T10:02:05.070Z,1.22
2018-10-03T10:08:00.092Z,1.13
2018-10-03T10:13:55.065Z,0.67
2018-10-03T10:19:50.084Z,0.55
2018-10-03T10:25:45.089Z,0.51
2018-10-03T10:31:40.152Z,0.71
2018-10-03T10:37:35.093Z,0.6
2018-10-03T10:43:30.180Z,0.55
2018-10-03T10:49:25.088Z,0.58
2018-10-03T10:55:20.127Z,0.6
2018-10-03T11:24:55.437Z,0.61
2018-10-03T11:24:55.437Z,0.73
2018-10-03T11:24:55.437Z,0.61
2018-10-03T11:24:55.437Z,0.61
2018-10-03T11:30:50.078Z,0.65
2018-10-03T11:36:45.096Z,0.6
2018-10-03T11:42:40.108Z,0.65
2018-10-03T11:48:35.121Z,0.64
2018-10-03T11:54:30.093Z,0.66
2018-10-03T12:00:25.122Z,0.57
2018-10-03T12:06:20.138Z,0.51
2018-10-03T12:12:15.148Z,0.71
2018-10-03T12:18:10.095Z,0.58
2018-10-03T12:24:05.125Z,0.76
2018-10-03T12:30:00.095Z,0.64
2018-10-03T12:35:55.126Z,0.62
2018-10-03T12:41:50.109Z,0.65
2018-10-03T12:47:45.153Z,0.62
2018-10-03T12:53:40.116Z,0.55
2018-10-03T12:59:35.151Z,0.72
2018-10-03T13:05:30.124Z,0.7
2018-10-03T13:11:25.178Z,0.86
2018-10-03T13:17:20.240Z,0.76
2018-10-03T13:23:15.188Z,0.78
2018-10-03T13:29:10.126Z,0.7
2018-10-03T13:35:05.151Z,0.51
2018-10-03T13:41:00.341Z,0.72
2018-10-03T13:46:55.153Z,1.01
2018-10-03T13:52:50.154Z,0.74
2018-10-03T13:58:45.151Z,0.84
2018-10-03T14:22:25.150Z,0.68
2018-10-03T14:22:25.391Z,0.75
2018-10-03T14:22:25.395Z,0.75
2018-10-03T14:22:25.454Z,0.75
2018-10-03T14:28:20.138Z,0.68
2018-10-03T14:34:15.159Z,0.81
2018-10-03T14:40:10.182Z,0.71
2018-10-03T14:46:05.169Z,0.69
2018-10-03T14:52:00.224Z,0.62
2018-10-03T14:57:55.168Z,0.65
2018-10-03T15:03:50.234Z,0.6
2018-10-03T15:09:45.185Z,0.6
2018-10-03T15:15:40.187Z,0.58
2018-10-03T15:21:35.213Z,0.5
2018-10-03T15:27:30.208Z,0.47
2018-10-03T15:33:25.331Z,0.68
2018-10-03T15:39:20.204Z,0.69
2018-10-03T15:45:15.184Z,0.63
2018-10-03T15:51:10.209Z,0.57
2018-10-03T15:57:05.171Z,0.62
2018-10-03T16:03:00.200Z,0.83
2018-10-03T16:08:55.275Z,0.68
2018-10-03T16:14:50.217Z,0.69
2018-10-03T16:20:45.227Z,0.9
2018-10-03T16:26:40.332Z,0.85
2018-10-03T16:32:35.290Z,0.62
2018-10-03T16:38:30.277Z,0.71
2018-10-03T16:44:25.242Z,0.76
2018-10-03T16:50:20.210Z,0.9
2018-10-03T16:56:15.249Z,0.83
2018-10-03T17:25:50.241Z,0.97
2018-10-03T17:25:50.443Z,0.9
2018-10-03T17:25:50.455Z,0.9
2018-10-03T17:25:50.489Z,0.9
2018-10-03T17:31:45.224Z,1.09
2018-10-03T17:37:40.325Z,0.96
2018-10-03T17:43:35.262Z,1.17
2018-10-03T17:49:30.252Z,0.87
2018-10-03T17:55:25.248Z,0.81
2018-10-03T18:01:20.236Z,1.07
2018-10-03T18:07:15.248Z,0.87
2018-10-03T18:13:10.247Z,0.99
2018-10-03T18:19:05.306Z,0.93
2018-10-03T18:25:00.229Z,1.25
2018-10-03T18:30:55.354Z,1.24
2018-10-03T18:36:50.347Z,1.04
2018-10-03T18:42:45.287Z,0.96
2018-10-03T18:48:40.294Z,1.05
2018-10-03T18:54:35.232Z,1.1
2018-10-03T19:00:30.231Z,0.88
2018-10-03T19:06:25.232Z,1
2018-10-03T19:12:20.321Z,1.08
2018-10-03T19:18:15.336Z,1.14
2018-10-03T19:24:10.280Z,0.9
2018-10-03T19:30:05.251Z,0.73
2018-10-03T19:36:00.229Z,0.92
2018-10-03T19:41:55.292Z,0.95
2018-10-03T19:47:50.303Z,0.81
2018-10-03T19:53:45.232Z,0.74
2018-10-03T19:59:40.270Z,0.85
2018-10-03T20:23:20.250Z,0.65
2018-10-03T20:23:20.419Z,0.72
2018-10-03T20:23:20.440Z,0.72
2018-10-03T20:23:20.447Z,0.72
2018-10-03T20:29:15.271Z,1.2
2018-10-03T20:35:10.246Z,0.94
2018-10-03T20:41:05.281Z,1.03
2018-10-03T20:47:00.254Z,0.89
2018-10-03T20:52:55.247Z,1.48
2018-10-03T20:58:50.286Z,0.87
2018-10-03T21:04:45.233Z,0.95
2018-10-03T21:10:40.273Z,1.2
2018-10-03T21:16:35.258Z,1.72
2018-10-03T21:22:30.250Z,0.96
2018-10-03T21:28:25.267Z,0.8
2018-10-03T21:34:20.282Z,1.44
2018-10-03T21:40:16.133Z,1.11
2018-10-03T21:46:10.270Z,0.95
2018-10-03T21:52:05.300Z,1.38
2018-10-03T21:58:00.234Z,1.84
2018-10-03T22:03:55.265Z,1.3
2018-10-03T22:09:50.256Z,1.01
2018-10-03T22:15:45.260Z,0.89
2018-10-03T22:21:40.290Z,1.21
2018-10-03T22:27:35.285Z,1.27
2018-10-03T22:33:30.235Z,1.61
2018-10-03T22:39:25.365Z,2.09
2018-10-03T22:45:20.239Z,2.57
2018-10-03T22:51:15.922Z,1.62
2018-10-03T22:57:10.251Z,1.1
2018-10-03T23:26:45.253Z,1.41
2018-10-03T23:26:45.373Z,1.38
2018-10-03T23:26:45.377Z,1.38
2018-10-03T23:26:45.450Z,1.38
2018-10-03T23:32:40.245Z,1.27
2018-10-03T23:38:35.293Z,1.41
2018-10-03T23:44:30.266Z,1.52
2018-10-03T23:50:25.239Z,0.96
2018-10-03T23:56:20.266Z,1
